Weather History for Oxford, NC

Change the Weather History Date:

Monday, January 20, 2014

  Actual Average (KTDF) Record (KTDF)
Temperature  
Mean Temperature 46 °F -  
Max Temperature 63 °F 44 °F 66 °F (2006)
Min Temperature 30 °F 23 °F 5 °F (1967)
Degree Days  
Heating Degree Days 18    
Moisture  
Dew Point 23 °F    
Average Humidity 47    
Maximum Humidity 80    
Minimum Humidity 17    
Precipitation  
Precipitation 0.01 in - - ()
Sea Level Pressure  
Sea Level Pressure 29.82 in    
Wind  
Wind Speed 8 mph (SW)    
Max Wind Speed 17 mph    
Max Gust Speed 25 mph    
Visibility 10 miles    
Events      
Averages and records for this station are not official NWS values.
T = Trace of Precipitation, MM = Missing Value Source: NWS Daily Summary

Daily Weather History Graph

Daily Weather History Graph

Search for Another Location

Airport:

Trip Planner

Search our weather history database for the weather conditions in past years. The results will help you decide how hot, cold, wet, or windy it might be!

Date:

Astronomy

Jan. 20, 2014 Rise Set
Actual Time 7:22 AM EST 5:27 PM EST
Civil Twilight 6:55 AM EST 5:55 PM EST
Nautical Twilight 6:23 AM EST 6:26 PM EST
Astronomical Twilight 5:53 AM EST 6:57 PM EST
Moon 9:51 PM EST (1/20) 9:30 AM EST (1/20)
Length of Visible Light 11h 00m
Length of Day
10h 04m
Waning Gibbous, 83% of the Moon is Illuminated
Jan 20
Waning Gibbous
Jan 24
Last Quarter
Jan 30
New
Feb 6
First Quarter
Feb 14
Full

Hourly Weather History & Observations

Time (EST) Temp. Windchill Dew Point Humidity Pressure Visibility Wind Dir Wind Speed Gust Speed Precip Events Conditions
12:15 AM 34.3 °F 29.2 °F 23.4 °F 64% 29.89 in 10.0 mi SSW 5.8 mph - N/A   Clear
12:35 AM 33.3 °F 26.4 °F 24.4 °F 70% 29.88 in 10.0 mi SSW 8.1 mph - N/A   Clear
12:55 AM 33.6 °F 27.5 °F 24.4 °F 69% 29.88 in 10.0 mi SW 6.9 mph - 0.01 in   Clear
1:15 AM 33.8 °F 28.6 °F 24.4 °F 69% 29.87 in 10.0 mi SSW 5.8 mph - N/A   Clear
1:35 AM 34.0 °F 27.2 °F 24.6 °F 69% 29.86 in 10.0 mi SW 8.1 mph - N/A   Clear
1:55 AM 33.3 °F 25.7 °F 24.8 °F 71% 29.86 in 10.0 mi SSW 9.2 mph - N/A   Clear
2:15 AM 33.8 °F 26.4 °F 24.8 °F 70% 29.85 in 10.0 mi SSW 9.2 mph - N/A   Clear
2:35 AM 34.7 °F 28.1 °F 24.8 °F 67% 29.85 in 10.0 mi SSW 8.1 mph - N/A   Clear
2:55 AM 33.4 °F 26.6 °F 24.6 °F 70% 29.85 in 10.0 mi SSW 8.1 mph - N/A   Clear
3:15 AM 33.3 °F 26.4 °F 24.8 °F 71% 29.86 in 10.0 mi SW 8.1 mph - N/A   Clear
3:35 AM 32.0 °F 24.8 °F 24.8 °F 75% 29.86 in 10.0 mi SSW 8.1 mph - N/A   Clear
3:55 AM 31.6 °F 25.1 °F 24.8 °F 76% 29.86 in 10.0 mi SSW 6.9 mph - N/A   Clear
4:15 AM 32.4 °F 24.6 °F 25.2 °F 75% 29.86 in 10.0 mi SW 9.2 mph - N/A   Clear
4:35 AM 31.8 °F 24.6 °F 24.8 °F 75% 29.85 in 10.0 mi SW 8.1 mph - N/A   Clear
4:55 AM 31.8 °F 25.4 °F 25.2 °F 76% 29.85 in 10.0 mi SW 6.9 mph - N/A   Clear
5:15 AM 32.0 °F 24.8 °F 25.2 °F 76% 29.85 in 10.0 mi SSW 8.1 mph - N/A   Clear
5:35 AM 30.9 °F 23.5 °F 24.8 °F 78% 29.85 in 10.0 mi SSW 8.1 mph - N/A   Clear
5:55 AM 32.0 °F 24.2 °F 25.3 °F 76% 29.85 in 10.0 mi SW 9.2 mph - N/A   Clear
6:15 AM 32.0 °F 24.2 °F 25.3 °F 76% 29.85 in 10.0 mi SW 9.2 mph - N/A   Clear
6:35 AM 31.6 °F 24.4 °F 25.5 °F 78% 29.86 in 10.0 mi SW 8.1 mph - N/A   Clear
6:55 AM 31.1 °F 26.4 °F 25.2 °F 79% 29.85 in 10.0 mi SW 4.6 mph - N/A   Clear
7:15 AM 30.9 °F 24.3 °F 25.3 °F 80% 29.84 in 10.0 mi SSW 6.9 mph - N/A   Clear
7:35 AM 31.1 °F 23.7 °F 25.3 °F 79% 29.84 in 10.0 mi SSW 8.1 mph - N/A   Clear
7:55 AM 32.0 °F 24.8 °F 25.7 °F 78% 29.84 in 10.0 mi SSW 8.1 mph - N/A   Clear
8:15 AM 33.3 °F 25.7 °F 26.2 °F 75% 29.85 in 10.0 mi SSW 9.2 mph - N/A   Clear
8:35 AM 34.9 °F 28.3 °F 26.8 °F 72% 29.85 in 10.0 mi SW 8.1 mph - N/A   Clear
8:55 AM 37.2 °F 31.2 °F 26.6 °F 65% 29.84 in 10.0 mi SSW 8.1 mph - N/A   Clear
9:15 AM 41.2 °F 35.5 °F 25.5 °F 54% 29.84 in 10.0 mi SW 9.2 mph - N/A   Clear
9:35 AM 44.1 °F 38.6 °F 24.1 °F 45% 29.85 in 10.0 mi SW 10.4 mph 16.1 mph N/A   Clear
9:55 AM 46.4 °F 41.5 °F 22.3 °F 39% 29.84 in 10.0 mi SW 10.4 mph - N/A   Clear
10:15 AM 47.7 °F - 23.5 °F 39% 29.84 in 10.0 mi SW 9.2 mph - N/A   Clear
10:35 AM 50.9 °F - 21.7 °F 32% 29.83 in 10.0 mi SW 10.4 mph - N/A   Clear
10:55 AM 52.3 °F - 22.1 °F 31% 29.83 in 10.0 mi SW 6.9 mph - N/A   Clear
11:15 AM 54.5 °F - 22.1 °F 28% 29.82 in 10.0 mi WSW 9.2 mph - N/A   Clear
11:35 AM 55.6 °F - 23.0 °F 28% 29.81 in 10.0 mi SW 11.5 mph - N/A   Clear
11:55 AM 57.6 °F - 23.4 °F 27% 29.80 in 10.0 mi SW 11.5 mph - N/A   Clear
12:15 PM 59.2 °F - 22.3 °F 24% 29.79 in 10.0 mi SSW 12.7 mph - N/A   Clear
12:35 PM 59.7 °F - 22.6 °F 24% 29.77 in 10.0 mi SSW 12.7 mph 18.4 mph N/A   Clear
12:55 PM 60.1 °F - 23.2 °F 24% 29.77 in 10.0 mi SW 11.5 mph - N/A   Clear
1:15 PM 61.3 °F - 21.6 °F 22% 29.76 in 10.0 mi SW 10.4 mph 17.3 mph N/A   Clear
1:35 PM 62.8 °F - 19.2 °F 19% 29.75 in 10.0 mi WSW 13.8 mph 23.0 mph N/A   Clear
1:55 PM 62.4 °F - 17.8 °F 18% 29.75 in 10.0 mi WSW 17.3 mph 25.3 mph N/A   Clear
2:15 PM 63.5 °F - 18.3 °F 18% 29.75 in 10.0 mi WSW 13.8 mph 20.7 mph N/A   Clear
2:35 PM 63.3 °F - 18.7 °F 18% 29.75 in 10.0 mi SW 15.0 mph - N/A   Clear
2:55 PM 63.5 °F - 17.6 °F 17% 29.74 in 10.0 mi WSW 11.5 mph 20.7 mph N/A   Clear
3:15 PM 63.1 °F - 18.3 °F 18% 29.75 in 10.0 mi SW 10.4 mph 19.6 mph N/A   Clear
3:35 PM 63.5 °F - 18.3 °F 18% 29.75 in 10.0 mi SW 10.4 mph 17.3 mph N/A   Clear
3:55 PM 62.6 °F - 18.5 °F 18% 29.76 in 10.0 mi SW 9.2 mph - N/A   Clear
4:15 PM 61.7 °F - 20.8 °F 21% 29.76 in 10.0 mi SW 12.7 mph - N/A   Clear
4:35 PM 60.4 °F - 20.8 °F 22% 29.77 in 10.0 mi SW 9.2 mph - N/A   Clear
4:55 PM 59.9 °F - 19.2 °F 21% 29.77 in 10.0 mi WSW 9.2 mph 16.1 mph N/A   Clear
5:15 PM 57.6 °F - 20.3 °F 24% 29.78 in 10.0 mi SW 6.9 mph - N/A   Clear
5:35 PM 53.1 °F - 23.0 °F 31% 29.79 in 10.0 mi SW 9.2 mph - N/A   Clear
5:55 PM 53.1 °F - 22.8 °F 31% 29.79 in 10.0 mi SW 9.2 mph - N/A   Clear
6:15 PM 51.8 °F - 23.2 °F 33% 29.80 in 10.0 mi SW 5.8 mph - N/A   Clear
6:35 PM 49.3 °F - 24.8 °F 38% 29.80 in 10.0 mi SSW 6.9 mph - N/A   Clear
6:55 PM 52.7 °F - 21.4 °F 29% 29.80 in 10.0 mi SW 5.8 mph - N/A   Clear
7:15 PM 52.5 °F - 21.0 °F 29% 29.81 in 10.0 mi SW 4.6 mph - N/A   Clear
7:35 PM 45.7 °F 41.5 °F 25.3 °F 45% 29.82 in 10.0 mi SSW 8.1 mph - N/A   Clear
7:55 PM 50.4 °F - 21.7 °F 33% 29.83 in 10.0 mi SW 3.5 mph - N/A   Clear
8:15 PM 49.3 °F - 21.9 °F 34% 29.84 in 10.0 mi SW 3.5 mph - N/A   Clear
8:35 PM 47.3 °F - 23.4 °F 39% 29.84 in 10.0 mi Calm Calm - N/A   Clear
8:55 PM 47.5 °F - 21.9 °F 36% 29.84 in 10.0 mi SSW 5.8 mph - N/A   Clear
9:15 PM 45.1 °F - 23.2 °F 42% 29.85 in 10.0 mi Calm Calm - N/A   Clear
9:35 PM 44.1 °F 42.5 °F 23.4 °F 44% 29.85 in 10.0 mi SW 3.5 mph - N/A   Clear
9:55 PM 44.6 °F 43.1 °F 23.0 °F 43% 29.85 in 10.0 mi SW 3.5 mph - N/A   Clear
10:15 PM 46.2 °F - 21.2 °F 37% 29.85 in 10.0 mi Calm Calm - N/A   Clear
10:35 PM 45.9 °F 44.6 °F 21.2 °F 38% 29.85 in 10.0 mi SW 3.5 mph - N/A   Clear
10:55 PM 46.0 °F - 21.4 °F 38% 29.84 in 10.0 mi Calm Calm - N/A   Clear
11:15 PM 38.7 °F 36.3 °F 25.2 °F 58% 29.84 in 10.0 mi WSW 3.5 mph - N/A   Clear
11:35 PM 38.7 °F - 24.8 °F 58% 29.83 in 10.0 mi Calm Calm - N/A   Clear
11:55 PM 41.4 °F - 23.0 °F 48% 29.82 in 10.0 mi Calm Calm - N/A   Clear